x

West Bermuda - 240 Nm West Of Bermuda (41048) Wave Buoy

8:50pm - Thu 29th Sep 2016 All times are UTC.

  • Sig Wave height 4.3ft
  • Swell Direction
  • Peak Period 6s
  • Average Period 5s
  • Wind
    16mph, 18mph gusts
  • Sea Temp 83°f
  • Air Temp 82°f
  • Sea Pressure 1020.4mb

More Historic Weather Station data

Upgrade to MSW Pro to gain access to the past 30 days of data for over 8000 Wavebouys and Weather Stations around the globe.

Join Pro

Comparision Forecast

View Surf forecast
   
Thu 09/29 8:50pm 4.5ft 6s 5s 16 18 mph 1020.4mb 83f 82f
7:50pm 4.5ft 6s 5s 16 18 mph 1020.2mb 83f 82f
6:50pm 4.5ft 5s 5s 18 20 mph 1020.2mb 83f 82f
5:50pm 4.5ft 8s 5s 18 20 mph 1020.1mb 83f 82f
4:50pm 3.5ft 8s 5s 18 20 mph 1020.4mb 83f 81f
3:50pm 3.5ft 5s 5s 16 20 mph 1020.3mb 83f 81f
2:50pm 3.5ft 7s 5s 11 13 mph 1020.7mb 83f 82f
1:50pm 4ft 5s 6s 13 16 mph 1021.2mb 83f 80f
12:50pm 4ft 6s 6s 11 13 mph 1020.9mb 83f 80f
11:50am 3.5ft 6s 5s 13 16 mph 1020.7mb 83f 79f
10:50am 4ft 6s 6s 11 13 mph 1019.9mb 83f 79f
9:50am 4.5ft 6s 5s 9 11 mph 1019.9mb 83f 79f
8:50am 4.5ft 6s 5s 18 25 mph 1019.5mb 83f 77f
7:50am 4.5ft 6s 6s 18 22 mph 1018.7mb 83f 80f
6:50am 4.5ft 6s 6s 9 11 mph 1018.8mb 83f 82f
5:50am 4.5ft 6s 6s 11 13 mph 1019.4mb 83f 82f
4:50am 4.5ft 6s 6s 11 13 mph 1019.4mb 83f 82f
3:50am 4.5ft 6s 6s 9 13 mph 1019.4mb 83f 82f
2:50am 5ft 6s 5s 11 13 mph 1019.5mb 83f 80f
1:50am 4.5ft 6s 5s 20 25 mph 1019.5mb 83f 79f
12:50am 5ft 6s 5s 13 16 mph 1018.8mb 83f 80f
Wed 09/28 11:50pm 5ft 6s 5s 18 25 mph 1018.2mb 83f 83f
10:50pm 5ft 6s 5s 16 18 mph 1017.8mb 83f 82f
9:50pm 5ft 6s 5s 18 20 mph 1017.2mb 83f 82f
8:50pm 5.5ft 6s 5s 16 20 mph 1017.4mb 83f 82f
7:50pm 5.5ft 6s 5s 20 25 mph 1017.1mb 83f 82f
6:50pm 5.5ft 6s 5s 20 22 mph 1016.9mb 83f 82f
5:50pm 5ft 6s 5s 20 25 mph 1017.1mb 83f 80f
4:50pm 6ft 6s 6s 18 22 mph 1017.2mb 83f 81f
3:50pm 5ft 11s 6s 18 22 mph 1017.2mb 83f 81f
2:50pm 5ft 6s 6s 18 20 mph 1017.5mb 83f 80f
1:50pm 6ft 6s 6s 18 22 mph 1017.5mb 83f 80f
12:50pm 6ft 6s 6s 16 20 mph 1017mb 83f 79f
11:50am 6ft 6s 6s 13 16 mph 1016.3mb 83f 78f
10:50am 6ft 6s 6s 18 27 mph 1015.8mb 83f 75f
9:50am 5.5ft 6s 6s 18 22 mph 1015.1mb 83f 82f
8:50am 6ft 6s 6s 18 20 mph 1014.7mb 83f 82f
7:50am 5.5ft 7s 6s 18 22 mph 1014.4mb 83f 81f
6:50am 5.5ft 6s 6s 18 22 mph 1014.3mb 83f 81f
5:50am 6ft 7s 6s 20 25 mph 1014.1mb 83f 80f
4:50am 6ft 7s 6s 22 29 mph 1014.6mb 83f 80f
3:50am 5ft 7s 6s 18 22 mph 1015.4mb 83f 79f
2:50am 5.5ft 7s 6s 9 11 mph 1015.9mb 83f 78f
1:50am 6ft 7s 6s 16 20 mph 1016.4mb 83f 78f
12:50am 6ft 7s 6s 13 20 mph 1015.8mb 83f 74f
Tue 09/27 11:50pm 7ft 7s 6s 22 29 mph 1014.5mb 83f 82f
10:50pm 7ft 6s 6s 25 29 mph 1014.3mb 83f 82f
9:50pm 7ft 7s 6s 22 27 mph 1014.4mb 83f 80f
8:50pm 7ft 6s 6s 25 31 mph 1014.5mb 83f 82f
7:50pm 6ft 6s 6s 22 29 mph 1015mb 83f 82f
6:50pm 6ft 6s 6s 22 25 mph 1015.3mb 83f 81f
5:50pm 6ft 7s 6s 20 25 mph 1015.7mb 83f 81f
4:50pm 6ft 8s 6s 20 25 mph 1016.7mb 83f 81f
3:50pm 5.5ft 8s 6s 20 25 mph 1017.4mb 83f 81f
2:50pm 5.5ft 8s 6s 20 25 mph 1017.7mb 83f 80f
1:50pm 5.5ft 8s 6s 20 25 mph 1017.7mb 83f 80f
12:50pm 5.5ft 8s 6s 18 22 mph 1017.6mb 83f 79f
11:50am 5.5ft 8s 6s 20 22 mph 1017.1mb 83f 79f
10:50am 5.5ft 9s 6s 18 20 mph 1017.1mb 83f 78f
9:50am 5.5ft 8s 6s 13 18 mph 1017.1mb 83f 78f
8:50am 6ft 9s 7s 16 18 mph 1017mb 83f 78f
7:50am 6ft 9s 6s 16 18 mph 1017.2mb 83f 78f
6:50am 6ft 8s 6s 16 20 mph 1017.6mb 83f 78f
5:50am 5.5ft 8s 6s 13 18 mph 1018.1mb 83f 78f
4:50am 6ft 8s 6s 18 22 mph 1018.4mb 83f 78f
3:50am 6ft 9s 6s 16 22 mph 1018.5mb 83f 78f
2:50am 6ft 8s 6s 18 25 mph 1018.4mb 83f 78f
1:50am 6ft 8s 6s 18 22 mph 1018.6mb 83f 79f
12:50am 6ft 7s 6s 18 20 mph 1018.5mb 83f 79f
Mon 09/26 11:50pm 6ft 7s 6s 16 20 mph 1018.3mb 83f 79f
10:50pm 6ft 8s 6s 18 25 mph 1017.7mb 83f 79f
9:50pm 6ft 8s 6s 18 22 mph 1017.2mb 83f 79f
8:50pm 5.5ft 8s 6s 18 22 mph 1017mb 83f 79f
7:50pm 5.5ft 8s 6s 18 22 mph 1017.1mb 83f 79f
6:50pm 6ft 7s 6s 18 25 mph 1017.1mb 84f 78f
5:50pm 6ft 8s 6s 18 22 mph 1017.2mb 84f 79f
4:50pm 6ft 8s 6s 18 22 mph 1017.5mb 84f 79f
3:50pm 6ft 8s 6s 16 22 mph 1017.7mb 84f 79f
2:50pm 6ft 8s 6s 13 16 mph 1018.1mb 84f 79f
1:50pm 6.5ft 8s 6s 13 18 mph 1018mb 84f 78f
12:50pm 6ft 8s 6s 16 20 mph 1017.8mb 83f 78f
11:50am 6.5ft 8s 6s 18 20 mph 1017.3mb 84f 78f
10:50am 7ft 8s 6s 18 22 mph 1016.8mb 83f 78f
9:50am 7ft 8s 6s 18 20 mph 1016.2mb 84f 78f
8:50am 6.5ft 9s 6s 18 22 mph 1015.5mb 84f 78f
7:50am 7ft 8s 6s 16 22 mph 1015.5mb 84f 78f
6:50am 7ft 8s 6s 18 22 mph 1015.4mb 84f 78f
5:50am 7ft 8s 6s 20 25 mph 1015.7mb 84f 79f
4:50am 6ft 7s 5s 20 25 mph 1015.6mb 84f 79f
3:50am 5.5ft 7s 5s 20 25 mph 1015.9mb 84f 79f
2:50am 5ft 7s 5s 18 22 mph 1016.2mb 84f 79f
1:50am 5ft 6s 5s 18 20 mph 1016.3mb 84f 80f
12:50am 4.5ft 7s 5s 20 22 mph 1016mb 84f 80f
Sun 09/25 11:50pm 4.5ft 6s 5s 18 20 mph 1015.5mb 84f 80f
10:50pm 4ft 7s 5s 20 22 mph 1014.9mb 84f 80f
9:50pm 3.5ft 6s 5s 22 25 mph 1014.1mb 84f 81f